NATURA VA

 INFORMACIÓN METAR y TAF
METAR FOR LELO
ADDS - METARS form results

(2240 UTC 17 June 2019)
Data provider http://aviationweather.gov/metar/data/
 
METAR text: LELO 172230Z AUTO 26004KT 230V290 CAVOK 23/09 Q1012
Conditions at: LELO (LOGRONO/AGONCILL, ES) observed 2230 UTC 17 June 2019
Temperature: 23.0°C (73°F)
Dewpoint: 9.0°C (48°F) [RH = 41%]
Pressure (altimeter): 29.88 inches Hg (1012.0 mb)
Winds: from the W (260 degrees) at 5 MPH (4 knots; 2.1 m/s)
Visibility: 6 or more miles (10+ km)
Ceiling: ceiling and visibility are OK
Clouds: unknown
Weather: no significant weather observed at this time

METAR text: LELO 172200Z AUTO 24003KT 220V030 CAVOK 23/09 Q1012
Conditions at: LELO (LOGRONO/AGONCILL, ES) observed 2200 UTC 17 June 2019
Temperature: 23.0°C (73°F)
Dewpoint: 9.0°C (48°F) [RH = 41%]
Pressure (altimeter): 29.88 inches Hg (1012.0 mb)
Winds: from the WSW (240 degrees) at 3 MPH (3 knots; 1.5 m/s)
Visibility: 6 or more miles (10+ km)
Ceiling: ceiling and visibility are OK
Clouds: unknown
Weather: no significant weather observed at this time

Forecast for: LELO (LOGRONO/AGONCILL, ES)
Text: TAF LELO 171700Z 1718/1803 12007KT 9999 FEW050
Forecast period: 1800 UTC 17 June 2019 to 0300 UTC 18 June 2019
Forecast type: FROM: standard forecast or significant change
Winds: from the ESE (120 degrees) at 8 MPH (7 knots; 3.6 m/s)
Visibility: 6 or more miles 10+ km)
Ceiling: at least 12,000 feet AGL
Clouds: few clouds at 5000 feet AGL
Weather: no significant weather forecast for this period

 MAPA DE AEROPUERTO

 INFORMACIÓN DE PISTA

 FRECUANCIAS DEL AEROPUERTO

 RADIO AYUDAS DEL AEROPUERTO
Tipo NDB Nombre Logrono Frecuencia 399 KHZ



Powered by Virtual Airlines Manager [v2.6.2]